sensor_id;sensor_type;location;lat;lon;timestamp;temperature;humidity
62154;DHT22;48140;45.486;9.226;2023-09-07T00:00:09;23.30;63.70
62154;DHT22;48140;45.486;9.226;2023-09-07T00:02:36;23.20;63.80
62154;DHT22;48140;45.486;9.226;2023-09-07T00:05:01;23.30;63.80
62154;DHT22;48140;45.486;9.226;2023-09-07T00:07:27;23.30;63.60
62154;DHT22;48140;45.486;9.226;2023-09-07T00:09:52;23.30;64.10
62154;DHT22;48140;45.486;9.226;2023-09-07T00:12:18;23.30;64.00
62154;DHT22;48140;45.486;9.226;2023-09-07T00:14:43;23.30;64.20
62154;DHT22;48140;45.486;9.226;2023-09-07T00:17:10;23.40;64.00
62154;DHT22;48140;45.486;9.226;2023-09-07T00:19:35;23.30;64.20
62154;DHT22;48140;45.486;9.226;2023-09-07T00:22:02;23.40;64.60
62154;DHT22;48140;45.486;9.226;2023-09-07T00:24:29;23.30;64.80
62154;DHT22;48140;45.486;9.226;2023-09-07T00:26:55;23.20;65.20
62154;DHT22;48140;45.486;9.226;2023-09-07T00:29:20;23.10;65.20
62154;DHT22;48140;45.486;9.226;2023-09-07T00:31:46;23.10;66.60
62154;DHT22;48140;45.486;9.226;2023-09-07T00:34:11;23.10;65.80
62154;DHT22;48140;45.486;9.226;2023-09-07T00:36:37;23.00;66.00
62154;DHT22;48140;45.486;9.226;2023-09-07T00:39:02;23.00;66.10
62154;DHT22;48140;45.486;9.226;2023-09-07T00:41:28;22.90;66.30
62154;DHT22;48140;45.486;9.226;2023-09-07T00:43:53;22.90;66.40
62154;DHT22;48140;45.486;9.226;2023-09-07T00:46:19;22.80;67.00
62154;DHT22;48140;45.486;9.226;2023-09-07T00:48:46;22.80;67.00
62154;DHT22;48140;45.486;9.226;2023-09-07T00:51:11;22.70;67.50
62154;DHT22;48140;45.486;9.226;2023-09-07T00:53:37;22.60;67.80
62154;DHT22;48140;45.486;9.226;2023-09-07T00:56:03;22.60;68.40
62154;DHT22;48140;45.486;9.226;2023-09-07T00:58:29;22.60;68.30
62154;DHT22;48140;45.486;9.226;2023-09-07T01:00:54;22.70;68.30
62154;DHT22;48140;45.486;9.226;2023-09-07T01:03:20;22.60;68.60
62154;DHT22;48140;45.486;9.226;2023-09-07T01:06:07;22.50;69.00
62154;DHT22;48140;45.486;9.226;2023-09-07T01:08:39;22.40;69.30
62154;DHT22;48140;45.486;9.226;2023-09-07T01:11:16;22.40;70.00
62154;DHT22;48140;45.486;9.226;2023-09-07T01:13:41;22.40;69.70
62154;DHT22;48140;45.486;9.226;2023-09-07T01:16:07;22.40;70.00
62154;DHT22;48140;45.486;9.226;2023-09-07T01:18:33;22.30;70.50
62154;DHT22;48140;45.486;9.226;2023-09-07T01:20:59;22.40;70.60
62154;DHT22;48140;45.486;9.226;2023-09-07T01:23:25;22.40;70.80
62154;DHT22;48140;45.486;9.226;2023-09-07T01:25:53;22.40;70.70
62154;DHT22;48140;45.486;9.226;2023-09-07T01:28:19;22.30;70.60
62154;DHT22;48140;45.486;9.226;2023-09-07T01:30:46;22.30;70.80
62154;DHT22;48140;45.486;9.226;2023-09-07T01:33:12;22.30;71.40
62154;DHT22;48140;45.486;9.226;2023-09-07T01:35:37;22.30;71.00
62154;DHT22;48140;45.486;9.226;2023-09-07T01:38:03;22.30;71.20
62154;DHT22;48140;45.486;9.226;2023-09-07T01:40:29;22.20;71.40
62154;DHT22;48140;45.486;9.226;2023-09-07T01:42:54;22.20;71.90
62154;DHT22;48140;45.486;9.226;2023-09-07T01:45:20;22.20;72.40
62154;DHT22;48140;45.486;9.226;2023-09-07T01:47:49;22.00;73.00
62154;DHT22;48140;45.486;9.226;2023-09-07T01:50:16;22.00;73.70
62154;DHT22;48140;45.486;9.226;2023-09-07T01:52:41;22.00;73.80
62154;DHT22;48140;45.486;9.226;2023-09-07T01:55:07;22.00;74.20
62154;DHT22;48140;45.486;9.226;2023-09-07T01:57:32;21.90;74.20
62154;DHT22;48140;45.486;9.226;2023-09-07T01:59:58;22.00;74.70
62154;DHT22;48140;45.486;9.226;2023-09-07T02:02:23;22.00;75.00
62154;DHT22;48140;45.486;9.226;2023-09-07T02:04:49;22.00;75.20
62154;DHT22;48140;45.486;9.226;2023-09-07T02:07:14;21.90;75.00
62154;DHT22;48140;45.486;9.226;2023-09-07T02:09:40;21.70;76.10
62154;DHT22;48140;45.486;9.226;2023-09-07T02:12:06;21.60;76.60
62154;DHT22;48140;45.486;9.226;2023-09-07T02:14:31;21.60;77.10
62154;DHT22;48140;45.486;9.226;2023-09-07T02:16:57;21.50;77.50
62154;DHT22;48140;45.486;9.226;2023-09-07T02:19:22;21.50;77.90
62154;DHT22;48140;45.486;9.226;2023-09-07T02:21:48;21.60;78.20
62154;DHT22;48140;45.486;9.226;2023-09-07T02:24:15;21.60;78.50
62154;DHT22;48140;45.486;9.226;2023-09-07T02:26:40;21.60;78.80
62154;DHT22;48140;45.486;9.226;2023-09-07T02:29:11;21.60;78.50
62154;DHT22;48140;45.486;9.226;2023-09-07T02:31:36;21.60;78.60
62154;DHT22;48140;45.486;9.226;2023-09-07T02:34:01;21.60;78.50
62154;DHT22;48140;45.486;9.226;2023-09-07T02:36:28;21.50;79.20
62154;DHT22;48140;45.486;9.226;2023-09-07T02:38:54;21.50;79.40
62154;DHT22;48140;45.486;9.226;2023-09-07T02:41:20;21.50;79.60
62154;DHT22;48140;45.486;9.226;2023-09-07T02:43:45;21.40;80.10
62154;DHT22;48140;45.486;9.226;2023-09-07T02:46:10;21.50;80.30
62154;DHT22;48140;45.486;9.226;2023-09-07T02:48:36;21.40;80.30
62154;DHT22;48140;45.486;9.226;2023-09-07T02:51:01;21.40;80.50
62154;DHT22;48140;45.486;9.226;2023-09-07T02:53:27;21.40;80.90
62154;DHT22;48140;45.486;9.226;2023-09-07T02:55:52;21.40;80.90
62154;DHT22;48140;45.486;9.226;2023-09-07T02:58:18;21.40;81.20
62154;DHT22;48140;45.486;9.226;2023-09-07T03:00:44;21.40;81.20
62154;DHT22;48140;45.486;9.226;2023-09-07T03:03:11;21.40;81.90
62154;DHT22;48140;45.486;9.226;2023-09-07T03:05:38;21.40;82.00
62154;DHT22;48140;45.486;9.226;2023-09-07T03:08:04;21.40;82.30
62154;DHT22;48140;45.486;9.226;2023-09-07T03:10:29;21.40;82.50
62154;DHT22;48140;45.486;9.226;2023-09-07T03:12:55;21.40;82.80
62154;DHT22;48140;45.486;9.226;2023-09-07T03:15:20;21.40;83.30
62154;DHT22;48140;45.486;9.226;2023-09-07T03:17:46;21.40;83.50
62154;DHT22;48140;45.486;9.226;2023-09-07T03:20:11;21.40;83.50
62154;DHT22;48140;45.486;9.226;2023-09-07T03:22:42;21.40;84.10
62154;DHT22;48140;45.486;9.226;2023-09-07T03:25:08;21.30;84.20
62154;DHT22;48140;45.486;9.226;2023-09-07T03:27:33;21.30;84.50
62154;DHT22;48140;45.486;9.226;2023-09-07T03:29:59;21.30;85.20
62154;DHT22;48140;45.486;9.226;2023-09-07T03:32:24;21.30;85.40
62154;DHT22;48140;45.486;9.226;2023-09-07T03:34:52;21.20;86.00
62154;DHT22;48140;45.486;9.226;2023-09-07T03:37:17;21.20;86.50
62154;DHT22;48140;45.486;9.226;2023-09-07T03:39:43;21.30;86.40
62154;DHT22;48140;45.486;9.226;2023-09-07T03:42:08;21.30;86.30
62154;DHT22;48140;45.486;9.226;2023-09-07T03:44:34;21.30;87.00
62154;DHT22;48140;45.486;9.226;2023-09-07T03:47:00;21.20;87.50
62154;DHT22;48140;45.486;9.226;2023-09-07T03:49:25;21.20;88.20
62154;DHT22;48140;45.486;9.226;2023-09-07T03:51:51;21.20;88.20
62154;DHT22;48140;45.486;9.226;2023-09-07T03:54:16;21.20;88.90
62154;DHT22;48140;45.486;9.226;2023-09-07T03:56:42;21.20;89.40
62154;DHT22;48140;45.486;9.226;2023-09-07T03:59:07;21.10;90.10
62154;DHT22;48140;45.486;9.226;2023-09-07T04:01:33;21.10;90.40
62154;DHT22;48140;45.486;9.226;2023-09-07T04:03:58;21.10;90.60
62154;DHT22;48140;45.486;9.226;2023-09-07T04:06:24;21.10;90.70
62154;DHT22;48140;45.486;9.226;2023-09-07T04:08:50;21.10;91.10
62154;DHT22;48140;45.486;9.226;2023-09-07T04:11:15;21.00;91.50
62154;DHT22;48140;45.486;9.226;2023-09-07T04:13:41;21.00;92.00
62154;DHT22;48140;45.486;9.226;2023-09-07T04:16:08;21.00;92.10
62154;DHT22;48140;45.486;9.226;2023-09-07T04:18:34;21.00;92.60
62154;DHT22;48140;45.486;9.226;2023-09-07T04:21:05;21.00;92.70
62154;DHT22;48140;45.486;9.226;2023-09-07T04:23:31;21.00;93.10
62154;DHT22;48140;45.486;9.226;2023-09-07T04:26:03;21.00;93.40
62154;DHT22;48140;45.486;9.226;2023-09-07T04:28:29;21.00;93.50
62154;DHT22;48140;45.486;9.226;2023-09-07T04:30:54;21.00;93.90
62154;DHT22;48140;45.486;9.226;2023-09-07T04:33:20;20.90;94.20
62154;DHT22;48140;45.486;9.226;2023-09-07T04:35:45;20.90;94.60
62154;DHT22;48140;45.486;9.226;2023-09-07T04:38:11;20.90;94.70
62154;DHT22;48140;45.486;9.226;2023-09-07T04:40:36;21.00;94.80
62154;DHT22;48140;45.486;9.226;2023-09-07T04:43:02;20.90;95.10
62154;DHT22;48140;45.486;9.226;2023-09-07T04:45:27;21.00;95.30
62154;DHT22;48140;45.486;9.226;2023-09-07T04:47:53;20.90;95.60
62154;DHT22;48140;45.486;9.226;2023-09-07T04:50:18;20.90;95.70
62154;DHT22;48140;45.486;9.226;2023-09-07T04:52:44;20.80;96.10
62154;DHT22;48140;45.486;9.226;2023-09-07T04:55:09;20.80;96.40
62154;DHT22;48140;45.486;9.226;2023-09-07T04:57:36;20.90;96.60
62154;DHT22;48140;45.486;9.226;2023-09-07T05:00:01;20.90;96.60
62154;DHT22;48140;45.486;9.226;2023-09-07T05:02:28;20.90;96.50
62154;DHT22;48140;45.486;9.226;2023-09-07T05:04:54;20.90;96.90
62154;DHT22;48140;45.486;9.226;2023-09-07T05:07:19;20.90;96.90
62154;DHT22;48140;45.486;9.226;2023-09-07T05:09:45;21.00;96.70
62154;DHT22;48140;45.486;9.226;2023-09-07T05:12:10;21.00;96.80
62154;DHT22;48140;45.486;9.226;2023-09-07T05:14:36;21.00;96.80
62154;DHT22;48140;45.486;9.226;2023-09-07T05:17:01;21.00;96.70
62154;DHT22;48140;45.486;9.226;2023-09-07T05:19:27;21.10;96.70
62154;DHT22;48140;45.486;9.226;2023-09-07T05:21:52;21.10;96.30
62154;DHT22;48140;45.486;9.226;2023-09-07T05:24:18;21.10;96.30
62154;DHT22;48140;45.486;9.226;2023-09-07T05:26:46;21.20;96.00
62154;DHT22;48140;45.486;9.226;2023-09-07T05:29:12;21.20;96.00
62154;DHT22;48140;45.486;9.226;2023-09-07T05:31:38;21.20;96.20
62154;DHT22;48140;45.486;9.226;2023-09-07T05:34:03;21.30;96.10
62154;DHT22;48140;45.486;9.226;2023-09-07T05:36:29;21.30;95.60
62154;DHT22;48140;45.486;9.226;2023-09-07T05:38:54;21.40;95.60
62154;DHT22;48140;45.486;9.226;2023-09-07T05:41:20;21.30;95.50
62154;DHT22;48140;45.486;9.226;2023-09-07T05:43:45;21.40;95.40
62154;DHT22;48140;45.486;9.226;2023-09-07T05:46:11;21.40;95.30
62154;DHT22;48140;45.486;9.226;2023-09-07T05:48:36;21.40;95.30
62154;DHT22;48140;45.486;9.226;2023-09-07T05:51:02;21.50;95.10
62154;DHT22;48140;45.486;9.226;2023-09-07T05:53:29;21.50;95.10
62154;DHT22;48140;45.486;9.226;2023-09-07T05:55:54;21.60;94.60
62154;DHT22;48140;45.486;9.226;2023-09-07T05:58:19;21.70;94.20
62154;DHT22;48140;45.486;9.226;2023-09-07T06:00:45;21.80;93.80
62154;DHT22;48140;45.486;9.226;2023-09-07T06:03:11;21.90;93.60
62154;DHT22;48140;45.486;9.226;2023-09-07T06:05:37;21.90;93.60
62154;DHT22;48140;45.486;9.226;2023-09-07T06:08:04;22.00;92.90
62154;DHT22;48140;45.486;9.226;2023-09-07T06:10:29;22.10;92.60
62154;DHT22;48140;45.486;9.226;2023-09-07T06:12:55;22.20;92.10
62154;DHT22;48140;45.486;9.226;2023-09-07T06:15:21;22.30;91.80
62154;DHT22;48140;45.486;9.226;2023-09-07T06:17:46;22.30;91.50
62154;DHT22;48140;45.486;9.226;2023-09-07T06:20:12;22.50;91.20
62154;DHT22;48140;45.486;9.226;2023-09-07T06:22:38;22.50;90.90
62154;DHT22;48140;45.486;9.226;2023-09-07T06:25:04;22.60;91.00
62154;DHT22;48140;45.486;9.226;2023-09-07T06:27:29;22.60;90.30
62154;DHT22;48140;45.486;9.226;2023-09-07T06:29:55;22.70;90.00
62154;DHT22;48140;45.486;9.226;2023-09-07T06:32:21;22.80;89.10
62154;DHT22;48140;45.486;9.226;2023-09-07T06:34:47;22.90;88.30
62154;DHT22;48140;45.486;9.226;2023-09-07T06:37:12;23.10;88.10
62154;DHT22;48140;45.486;9.226;2023-09-07T06:39:38;23.10;87.20
62154;DHT22;48140;45.486;9.226;2023-09-07T06:42:04;23.20;85.80
62154;DHT22;48140;45.486;9.226;2023-09-07T06:44:29;23.30;85.00
62154;DHT22;48140;45.486;9.226;2023-09-07T06:46:55;23.30;84.10
62154;DHT22;48140;45.486;9.226;2023-09-07T06:49:21;23.60;82.90
62154;DHT22;48140;45.486;9.226;2023-09-07T06:51:46;23.70;82.20
62154;DHT22;48140;45.486;9.226;2023-09-07T06:54:12;23.80;81.50
62154;DHT22;48140;45.486;9.226;2023-09-07T06:56:38;24.00;81.80
62154;DHT22;48140;45.486;9.226;2023-09-07T06:59:04;24.00;80.20
62154;DHT22;48140;45.486;9.226;2023-09-07T07:01:29;24.10;79.40
62154;DHT22;48140;45.486;9.226;2023-09-07T07:03:55;24.20;80.50
62154;DHT22;48140;45.486;9.226;2023-09-07T07:06:22;24.30;77.80
62154;DHT22;48140;45.486;9.226;2023-09-07T07:08:48;24.60;76.50
62154;DHT22;48140;45.486;9.226;2023-09-07T07:11:14;24.60;74.20
62154;DHT22;48140;45.486;9.226;2023-09-07T07:13:39;24.60;74.00
62154;DHT22;48140;45.486;9.226;2023-09-07T07:16:05;24.90;72.80
62154;DHT22;48140;45.486;9.226;2023-09-07T07:18:30;24.80;71.70
62154;DHT22;48140;45.486;9.226;2023-09-07T07:20:56;25.00;70.70
62154;DHT22;48140;45.486;9.226;2023-09-07T07:23:21;25.00;70.30
62154;DHT22;48140;45.486;9.226;2023-09-07T07:25:47;25.00;70.00
62154;DHT22;48140;45.486;9.226;2023-09-07T07:28:13;25.00;68.10
62154;DHT22;48140;45.486;9.226;2023-09-07T07:30:39;25.30;67.20
62154;DHT22;48140;45.486;9.226;2023-09-07T07:33:08;25.30;66.50
62154;DHT22;48140;45.486;9.226;2023-09-07T07:35:34;25.30;64.60
62154;DHT22;48140;45.486;9.226;2023-09-07T07:38:03;25.40;64.60
62154;DHT22;48140;45.486;9.226;2023-09-07T07:40:33;25.20;64.60
62154;DHT22;48140;45.486;9.226;2023-09-07T07:42:58;25.30;65.20
62154;DHT22;48140;45.486;9.226;2023-09-07T07:45:24;25.50;64.40
62154;DHT22;48140;45.486;9.226;2023-09-07T07:47:50;25.60;64.00
62154;DHT22;48140;45.486;9.226;2023-09-07T07:50:16;25.70;63.40
62154;DHT22;48140;45.486;9.226;2023-09-07T07:52:42;25.60;62.40
62154;DHT22;48140;45.486;9.226;2023-09-07T07:55:07;25.60;62.40
62154;DHT22;48140;45.486;9.226;2023-09-07T07:57:33;25.70;62.60
62154;DHT22;48140;45.486;9.226;2023-09-07T07:59:59;25.50;62.40
62154;DHT22;48140;45.486;9.226;2023-09-07T08:02:25;25.80;62.80
62154;DHT22;48140;45.486;9.226;2023-09-07T08:04:50;26.10;61.50
62154;DHT22;48140;45.486;9.226;2023-09-07T08:07:16;26.10;61.30
62154;DHT22;48140;45.486;9.226;2023-09-07T08:09:41;26.10;61.20
62154;DHT22;48140;45.486;9.226;2023-09-07T08:12:07;25.90;62.00
62154;DHT22;48140;45.486;9.226;2023-09-07T08:14:33;25.90;62.20
62154;DHT22;48140;45.486;9.226;2023-09-07T08:16:59;26.00;62.20
62154;DHT22;48140;45.486;9.226;2023-09-07T08:19:27;26.20;61.00
62154;DHT22;48140;45.486;9.226;2023-09-07T08:21:57;26.40;60.50
62154;DHT22;48140;45.486;9.226;2023-09-07T08:24:23;26.10;60.70
62154;DHT22;48140;45.486;9.226;2023-09-07T08:26:49;26.20;60.80
62154;DHT22;48140;45.486;9.226;2023-09-07T08:29:17;26.40;60.40
62154;DHT22;48140;45.486;9.226;2023-09-07T08:31:42;26.30;59.80
62154;DHT22;48140;45.486;9.226;2023-09-07T08:34:10;26.40;58.90
62154;DHT22;48140;45.486;9.226;2023-09-07T08:36:37;26.40;58.70
62154;DHT22;48140;45.486;9.226;2023-09-07T08:39:03;26.60;58.60
62154;DHT22;48140;45.486;9.226;2023-09-07T08:41:31;26.40;58.90
62154;DHT22;48140;45.486;9.226;2023-09-07T08:43:57;26.30;58.90
62154;DHT22;48140;45.486;9.226;2023-09-07T08:46:23;26.60;58.10
62154;DHT22;48140;45.486;9.226;2023-09-07T08:48:49;26.60;58.30
62154;DHT22;48140;45.486;9.226;2023-09-07T08:51:15;26.80;58.00
62154;DHT22;48140;45.486;9.226;2023-09-07T08:53:41;27.10;56.90
62154;DHT22;48140;45.486;9.226;2023-09-07T08:56:11;27.10;57.40
62154;DHT22;48140;45.486;9.226;2023-09-07T08:58:37;27.10;57.20
62154;DHT22;48140;45.486;9.226;2023-09-07T09:01:03;27.20;57.00
62154;DHT22;48140;45.486;9.226;2023-09-07T09:03:29;27.10;57.10
62154;DHT22;48140;45.486;9.226;2023-09-07T09:05:56;27.10;56.80
62154;DHT22;48140;45.486;9.226;2023-09-07T09:08:21;27.30;57.10
62154;DHT22;48140;45.486;9.226;2023-09-07T09:10:58;27.20;56.50
62154;DHT22;48140;45.486;9.226;2023-09-07T09:13:27;27.30;57.20
62154;DHT22;48140;45.486;9.226;2023-09-07T09:15:53;27.90;55.80
62154;DHT22;48140;45.486;9.226;2023-09-07T09:18:18;28.10;53.80
62154;DHT22;48140;45.486;9.226;2023-09-07T09:20:44;28.30;53.10
62154;DHT22;48140;45.486;9.226;2023-09-07T09:23:09;28.50;52.30
62154;DHT22;48140;45.486;9.226;2023-09-07T09:25:39;28.10;52.10
62154;DHT22;48140;45.486;9.226;2023-09-07T09:28:05;27.70;53.80
62154;DHT22;48140;45.486;9.226;2023-09-07T09:30:31;28.20;53.80
62154;DHT22;48140;45.486;9.226;2023-09-07T09:32:56;27.90;53.60
62154;DHT22;48140;45.486;9.226;2023-09-07T09:35:23;27.90;54.30
62154;DHT22;48140;45.486;9.226;2023-09-07T09:37:50;28.20;53.70
62154;DHT22;48140;45.486;9.226;2023-09-07T09:40:15;28.40;53.00
62154;DHT22;48140;45.486;9.226;2023-09-07T09:42:42;28.50;52.20
62154;DHT22;48140;45.486;9.226;2023-09-07T09:45:08;28.80;51.80
62154;DHT22;48140;45.486;9.226;2023-09-07T09:47:35;29.10;51.20
62154;DHT22;48140;45.486;9.226;2023-09-07T09:50:04;29.10;50.80
62154;DHT22;48140;45.486;9.226;2023-09-07T09:52:34;29.20;50.10
62154;DHT22;48140;45.486;9.226;2023-09-07T09:55:00;29.10;50.20
62154;DHT22;48140;45.486;9.226;2023-09-07T09:57:25;28.90;51.00
62154;DHT22;48140;45.486;9.226;2023-09-07T09:59:54;29.20;50.20
62154;DHT22;48140;45.486;9.226;2023-09-07T10:02:20;29.50;49.70
62154;DHT22;48140;45.486;9.226;2023-09-07T10:04:46;29.40;49.80
62154;DHT22;48140;45.486;9.226;2023-09-07T10:07:11;29.10;50.10
62154;DHT22;48140;45.486;9.226;2023-09-07T10:09:37;29.20;50.20
62154;DHT22;48140;45.486;9.226;2023-09-07T10:12:03;29.50;49.30
62154;DHT22;48140;45.486;9.226;2023-09-07T10:14:40;29.90;49.10
62154;DHT22;48140;45.486;9.226;2023-09-07T10:17:06;30.10;47.70
62154;DHT22;48140;45.486;9.226;2023-09-07T10:19:32;30.10;47.30
62154;DHT22;48140;45.486;9.226;2023-09-07T10:21:59;30.30;47.00
62154;DHT22;48140;45.486;9.226;2023-09-07T10:24:26;30.50;46.40
62154;DHT22;48140;45.486;9.226;2023-09-07T10:27:02;30.30;46.60
62154;DHT22;48140;45.486;9.226;2023-09-07T10:29:27;30.30;46.20
62154;DHT22;48140;45.486;9.226;2023-09-07T10:31:53;30.60;45.90
62154;DHT22;48140;45.486;9.226;2023-09-07T10:34:19;30.60;45.40
62154;DHT22;48140;45.486;9.226;2023-09-07T10:36:46;30.60;44.90
62154;DHT22;48140;45.486;9.226;2023-09-07T10:39:12;30.50;44.90
62154;DHT22;48140;45.486;9.226;2023-09-07T10:41:41;30.60;44.50
62154;DHT22;48140;45.486;9.226;2023-09-07T10:44:08;30.90;45.00
62154;DHT22;48140;45.486;9.226;2023-09-07T10:46:35;31.30;44.10
62154;DHT22;48140;45.486;9.226;2023-09-07T10:49:02;31.20;43.50
62154;DHT22;48140;45.486;9.226;2023-09-07T10:51:28;31.40;43.20
62154;DHT22;48140;45.486;9.226;2023-09-07T10:53:55;31.60;42.70
62154;DHT22;48140;45.486;9.226;2023-09-07T10:56:23;31.30;42.00
62154;DHT22;48140;45.486;9.226;2023-09-07T10:58:49;31.50;42.80
62154;DHT22;48140;45.486;9.226;2023-09-07T11:01:16;31.40;42.20
62154;DHT22;48140;45.486;9.226;2023-09-07T11:03:42;31.60;42.40
62154;DHT22;48140;45.486;9.226;2023-09-07T11:08:33;31.80;41.10
62154;DHT22;48140;45.486;9.226;2023-09-07T11:10:59;32.00;40.50
62154;DHT22;48140;45.486;9.226;2023-09-07T11:13:25;31.80;39.90
62154;DHT22;48140;45.486;9.226;2023-09-07T11:15:55;31.70;39.60
62154;DHT22;48140;45.486;9.226;2023-09-07T11:18:21;31.80;39.60
62154;DHT22;48140;45.486;9.226;2023-09-07T11:20:48;31.40;39.70
62154;DHT22;48140;45.486;9.226;2023-09-07T11:23:14;31.80;39.70
62154;DHT22;48140;45.486;9.226;2023-09-07T11:25:39;32.10;39.60
62154;DHT22;48140;45.486;9.226;2023-09-07T11:28:05;32.10;39.10
62154;DHT22;48140;45.486;9.226;2023-09-07T11:30:34;31.90;39.10
62154;DHT22;48140;45.486;9.226;2023-09-07T11:33:02;32.20;39.50
62154;DHT22;48140;45.486;9.226;2023-09-07T11:35:28;32.10;38.60
62154;DHT22;48140;45.486;9.226;2023-09-07T11:37:53;32.40;37.50
62154;DHT22;48140;45.486;9.226;2023-09-07T11:40:19;32.70;36.90
62154;DHT22;48140;45.486;9.226;2023-09-07T11:42:44;32.40;37.40
62154;DHT22;48140;45.486;9.226;2023-09-07T11:45:10;32.70;37.10
62154;DHT22;48140;45.486;9.226;2023-09-07T11:47:35;32.80;37.30
62154;DHT22;48140;45.486;9.226;2023-09-07T11:50:02;33.00;36.90
62154;DHT22;48140;45.486;9.226;2023-09-07T11:52:28;32.70;36.80
62154;DHT22;48140;45.486;9.226;2023-09-07T11:54:54;32.60;37.60
62154;DHT22;48140;45.486;9.226;2023-09-07T11:57:19;32.60;37.10
62154;DHT22;48140;45.486;9.226;2023-09-07T11:59:45;32.60;37.00
62154;DHT22;48140;45.486;9.226;2023-09-07T12:02:10;32.80;37.30
62154;DHT22;48140;45.486;9.226;2023-09-07T12:04:40;32.50;37.00
62154;DHT22;48140;45.486;9.226;2023-09-07T12:07:05;32.00;38.10
62154;DHT22;48140;45.486;9.226;2023-09-07T12:09:31;32.00;37.70
62154;DHT22;48140;45.486;9.226;2023-09-07T12:11:56;32.70;37.10
62154;DHT22;48140;45.486;9.226;2023-09-07T12:14:22;33.10;37.40
62154;DHT22;48140;45.486;9.226;2023-09-07T12:16:48;33.50;36.30
62154;DHT22;48140;45.486;9.226;2023-09-07T12:19:13;32.80;36.60
62154;DHT22;48140;45.486;9.226;2023-09-07T12:21:39;32.80;36.50
62154;DHT22;48140;45.486;9.226;2023-09-07T12:24:04;33.30;36.10
62154;DHT22;48140;45.486;9.226;2023-09-07T12:26:31;33.50;35.80
62154;DHT22;48140;45.486;9.226;2023-09-07T12:28:56;33.40;35.70
62154;DHT22;48140;45.486;9.226;2023-09-07T12:31:22;33.70;35.60
62154;DHT22;48140;45.486;9.226;2023-09-07T12:33:49;33.40;35.80
62154;DHT22;48140;45.486;9.226;2023-09-07T12:36:15;33.40;35.80
62154;DHT22;48140;45.486;9.226;2023-09-07T12:38:40;33.20;35.90
62154;DHT22;48140;45.486;9.226;2023-09-07T12:41:06;33.50;36.40
62154;DHT22;48140;45.486;9.226;2023-09-07T12:43:32;33.80;35.40
62154;DHT22;48140;45.486;9.226;2023-09-07T12:45:57;34.20;34.80
62154;DHT22;48140;45.486;9.226;2023-09-07T12:48:24;34.30;34.30
62154;DHT22;48140;45.486;9.226;2023-09-07T12:50:49;34.00;34.80
62154;DHT22;48140;45.486;9.226;2023-09-07T12:53:15;33.80;34.70
62154;DHT22;48140;45.486;9.226;2023-09-07T12:55:41;33.70;35.10
62154;DHT22;48140;45.486;9.226;2023-09-07T12:58:06;33.60;35.10
62154;DHT22;48140;45.486;9.226;2023-09-07T13:00:32;33.60;34.80
62154;DHT22;48140;45.486;9.226;2023-09-07T13:02:57;33.50;35.10
62154;DHT22;48140;45.486;9.226;2023-09-07T13:05:24;33.50;35.30
62154;DHT22;48140;45.486;9.226;2023-09-07T13:07:49;33.70;35.20
62154;DHT22;48140;45.486;9.226;2023-09-07T13:10:15;34.10;34.30
62154;DHT22;48140;45.486;9.226;2023-09-07T13:12:41;33.60;34.20
62154;DHT22;48140;45.486;9.226;2023-09-07T13:15:07;33.30;34.90
62154;DHT22;48140;45.486;9.226;2023-09-07T13:17:32;33.50;34.80
62154;DHT22;48140;45.486;9.226;2023-09-07T13:20:01;34.00;34.40
62154;DHT22;48140;45.486;9.226;2023-09-07T13:22:26;34.20;34.40
62154;DHT22;48140;45.486;9.226;2023-09-07T13:24:52;34.40;33.70
62154;DHT22;48140;45.486;9.226;2023-09-07T13:27:18;33.90;34.10
62154;DHT22;48140;45.486;9.226;2023-09-07T13:29:43;33.60;34.60
62154;DHT22;48140;45.486;9.226;2023-09-07T13:32:09;33.70;34.20
62154;DHT22;48140;45.486;9.226;2023-09-07T13:34:34;33.50;34.50
62154;DHT22;48140;45.486;9.226;2023-09-07T13:37:00;33.70;34.40
62154;DHT22;48140;45.486;9.226;2023-09-07T13:39:25;34.20;33.90
62154;DHT22;48140;45.486;9.226;2023-09-07T13:41:51;34.50;33.10
62154;DHT22;48140;45.486;9.226;2023-09-07T13:44:17;34.60;33.00
62154;DHT22;48140;45.486;9.226;2023-09-07T13:46:43;34.20;32.80
62154;DHT22;48140;45.486;9.226;2023-09-07T13:49:09;34.40;33.70
62154;DHT22;48140;45.486;9.226;2023-09-07T13:51:35;34.60;33.60
62154;DHT22;48140;45.486;9.226;2023-09-07T13:54:04;34.40;33.80
62154;DHT22;48140;45.486;9.226;2023-09-07T13:56:30;34.20;33.80
62154;DHT22;48140;45.486;9.226;2023-09-07T13:58:57;34.10;34.20
62154;DHT22;48140;45.486;9.226;2023-09-07T14:01:23;34.20;34.10
62154;DHT22;48140;45.486;9.226;2023-09-07T14:03:49;34.20;34.20
62154;DHT22;48140;45.486;9.226;2023-09-07T14:06:15;34.60;33.40
62154;DHT22;48140;45.486;9.226;2023-09-07T14:08:40;33.90;34.20
62154;DHT22;48140;45.486;9.226;2023-09-07T14:11:06;34.60;33.60
62154;DHT22;48140;45.486;9.226;2023-09-07T14:13:32;34.20;33.60
62154;DHT22;48140;45.486;9.226;2023-09-07T14:15:59;34.20;34.10
62154;DHT22;48140;45.486;9.226;2023-09-07T14:18:25;34.20;34.10
62154;DHT22;48140;45.486;9.226;2023-09-07T14:20:50;34.30;34.20
62154;DHT22;48140;45.486;9.226;2023-09-07T14:23:16;33.90;34.30
62154;DHT22;48140;45.486;9.226;2023-09-07T14:25:42;34.50;34.00
62154;DHT22;48140;45.486;9.226;2023-09-07T14:28:10;34.60;33.50
62154;DHT22;48140;45.486;9.226;2023-09-07T14:30:35;35.10;33.00
62154;DHT22;48140;45.486;9.226;2023-09-07T14:33:01;35.30;32.70
62154;DHT22;48140;45.486;9.226;2023-09-07T14:35:26;34.90;33.10
62154;DHT22;48140;45.486;9.226;2023-09-07T14:37:52;34.40;33.60
62154;DHT22;48140;45.486;9.226;2023-09-07T14:40:18;34.90;32.90
62154;DHT22;48140;45.486;9.226;2023-09-07T14:42:44;34.50;33.10
62154;DHT22;48140;45.486;9.226;2023-09-07T14:45:09;34.40;33.60
62154;DHT22;48140;45.486;9.226;2023-09-07T14:47:35;34.60;33.60
62154;DHT22;48140;45.486;9.226;2023-09-07T14:50:01;34.30;33.60
62154;DHT22;48140;45.486;9.226;2023-09-07T14:52:26;34.70;33.50
62154;DHT22;48140;45.486;9.226;2023-09-07T14:54:52;34.70;33.50
62154;DHT22;48140;45.486;9.226;2023-09-07T14:57:18;34.50;33.70
62154;DHT22;48140;45.486;9.226;2023-09-07T14:59:43;34.70;33.20
62154;DHT22;48140;45.486;9.226;2023-09-07T15:02:11;34.70;33.20
62154;DHT22;48140;45.486;9.226;2023-09-07T15:04:36;34.50;32.80
62154;DHT22;48140;45.486;9.226;2023-09-07T15:07:02;34.30;33.20
62154;DHT22;48140;45.486;9.226;2023-09-07T15:09:27;34.00;34.10
62154;DHT22;48140;45.486;9.226;2023-09-07T15:11:53;33.70;33.90
62154;DHT22;48140;45.486;9.226;2023-09-07T15:14:19;33.50;35.20
62154;DHT22;48140;45.486;9.226;2023-09-07T15:16:44;33.80;34.80
62154;DHT22;48140;45.486;9.226;2023-09-07T15:19:10;34.10;34.60
62154;DHT22;48140;45.486;9.226;2023-09-07T15:21:36;34.20;34.30
62154;DHT22;48140;45.486;9.226;2023-09-07T15:24:01;34.10;33.80